sensor_id;sensor_type;location;lat;lon;timestamp;P1;durP1;ratioP1;P2;durP2;ratioP2
55989;SDS011;41875;55.806;38.082;2023-03-05T00:04:09;6.55;;;1.30;;
55989;SDS011;41875;55.806;38.082;2023-03-05T00:06:42;2.15;;;1.30;;
55989;SDS011;41875;55.806;38.082;2023-03-05T00:09:13;2.60;;;1.17;;
55989;SDS011;41875;55.806;38.082;2023-03-05T00:11:43;3.50;;;1.10;;
55989;SDS011;41875;55.806;38.082;2023-03-05T00:14:13;1.77;;;1.30;;
55989;SDS011;41875;55.806;38.082;2023-03-05T00:16:42;2.00;;;1.17;;
55989;SDS011;41875;55.806;38.082;2023-03-05T00:19:11;3.08;;;1.23;;
55989;SDS011;41875;55.806;38.082;2023-03-05T00:21:41;2.83;;;1.35;;
55989;SDS011;41875;55.806;38.082;2023-03-05T00:24:14;3.17;;;1.52;;
55989;SDS011;41875;55.806;38.082;2023-03-05T00:26:44;2.47;;;1.20;;
55989;SDS011;41875;55.806;38.082;2023-03-05T00:29:15;2.42;;;1.75;;
55989;SDS011;41875;55.806;38.082;2023-03-05T00:31:48;3.65;;;1.60;;
55989;SDS011;41875;55.806;38.082;2023-03-05T00:34:17;3.20;;;1.63;;
55989;SDS011;41875;55.806;38.082;2023-03-05T00:36:48;1.83;;;1.33;;
55989;SDS011;41875;55.806;38.082;2023-03-05T00:39:20;2.42;;;1.30;;
55989;SDS011;41875;55.806;38.082;2023-03-05T00:41:50;3.53;;;1.50;;
55989;SDS011;41875;55.806;38.082;2023-03-05T00:44:19;2.00;;;1.30;;
55989;SDS011;41875;55.806;38.082;2023-03-05T00:46:49;1.55;;;1.20;;
55989;SDS011;41875;55.806;38.082;2023-03-05T00:49:19;3.63;;;1.88;;
55989;SDS011;41875;55.806;38.082;2023-03-05T00:51:48;2.10;;;1.40;;
55989;SDS011;41875;55.806;38.082;2023-03-05T00:54:18;3.25;;;1.30;;
55989;SDS011;41875;55.806;38.082;2023-03-05T00:56:49;1.95;;;1.08;;
55989;SDS011;41875;55.806;38.082;2023-03-05T00:59:19;2.50;;;1.20;;
55989;SDS011;41875;55.806;38.082;2023-03-05T01:01:48;1.52;;;1.08;;
55989;SDS011;41875;55.806;38.082;2023-03-05T01:04:18;2.47;;;1.60;;
55989;SDS011;41875;55.806;38.082;2023-03-05T01:06:47;2.47;;;1.20;;
55989;SDS011;41875;55.806;38.082;2023-03-05T01:09:17;2.28;;;1.25;;
55989;SDS011;41875;55.806;38.082;2023-03-05T01:11:49;2.53;;;1.33;;
55989;SDS011;41875;55.806;38.082;2023-03-05T01:14:19;4.88;;;1.45;;
55989;SDS011;41875;55.806;38.082;2023-03-05T01:16:49;2.67;;;1.15;;
55989;SDS011;41875;55.806;38.082;2023-03-05T01:19:19;1.95;;;1.17;;
55989;SDS011;41875;55.806;38.082;2023-03-05T01:21:52;2.83;;;1.30;;
55989;SDS011;41875;55.806;38.082;2023-03-05T01:24:21;3.58;;;1.50;;
55989;SDS011;41875;55.806;38.082;2023-03-05T01:26:53;2.55;;;1.20;;
55989;SDS011;41875;55.806;38.082;2023-03-05T01:29:22;3.17;;;1.50;;
55989;SDS011;41875;55.806;38.082;2023-03-05T01:31:52;3.08;;;1.30;;
55989;SDS011;41875;55.806;38.082;2023-03-05T01:34:22;3.50;;;1.20;;
55989;SDS011;41875;55.806;38.082;2023-03-05T01:36:51;2.83;;;1.58;;
55989;SDS011;41875;55.806;38.082;2023-03-05T01:39:21;3.05;;;1.30;;
55989;SDS011;41875;55.806;38.082;2023-03-05T01:41:53;2.50;;;1.17;;
55989;SDS011;41875;55.806;38.082;2023-03-05T01:44:23;2.58;;;1.63;;
55989;SDS011;41875;55.806;38.082;2023-03-05T01:46:55;4.32;;;1.35;;
55989;SDS011;41875;55.806;38.082;2023-03-05T01:49:25;2.50;;;1.27;;
55989;SDS011;41875;55.806;38.082;2023-03-05T01:51:58;1.73;;;1.10;;
55989;SDS011;41875;55.806;38.082;2023-03-05T01:54:32;2.88;;;1.50;;
55989;SDS011;41875;55.806;38.082;2023-03-05T01:57:08;1.38;;;1.20;;
55989;SDS011;41875;55.806;38.082;2023-03-05T01:59:42;3.10;;;1.27;;
55989;SDS011;41875;55.806;38.082;2023-03-05T02:02:15;2.97;;;1.42;;
55989;SDS011;41875;55.806;38.082;2023-03-05T02:04:49;1.85;;;1.00;;
55989;SDS011;41875;55.806;38.082;2023-03-05T02:07:22;2.67;;;1.52;;
55989;SDS011;41875;55.806;38.082;2023-03-05T02:09:52;1.58;;;1.10;;
55989;SDS011;41875;55.806;38.082;2023-03-05T02:12:24;4.45;;;1.30;;
55989;SDS011;41875;55.806;38.082;2023-03-05T02:15:14;2.70;;;1.17;;
55989;SDS011;41875;55.806;38.082;2023-03-05T02:17:44;5.38;;;1.50;;
55989;SDS011;41875;55.806;38.082;2023-03-05T02:20:14;3.88;;;1.30;;
55989;SDS011;41875;55.806;38.082;2023-03-05T02:22:48;3.35;;;1.48;;
55989;SDS011;41875;55.806;38.082;2023-03-05T02:25:19;3.33;;;1.33;;
55989;SDS011;41875;55.806;38.082;2023-03-05T02:27:51;2.30;;;1.23;;
55989;SDS011;41875;55.806;38.082;2023-03-05T02:30:24;3.10;;;1.20;;
55989;SDS011;41875;55.806;38.082;2023-03-05T02:32:57;2.97;;;1.10;;
55989;SDS011;41875;55.806;38.082;2023-03-05T02:35:27;5.80;;;1.23;;
55989;SDS011;41875;55.806;38.082;2023-03-05T02:37:58;2.35;;;1.48;;
55989;SDS011;41875;55.806;38.082;2023-03-05T02:40:28;1.38;;;1.00;;
55989;SDS011;41875;55.806;38.082;2023-03-05T02:42:56;2.92;;;1.38;;
55989;SDS011;41875;55.806;38.082;2023-03-05T02:45:26;1.75;;;1.00;;
55989;SDS011;41875;55.806;38.082;2023-03-05T02:47:55;2.53;;;1.17;;
55989;SDS011;41875;55.806;38.082;2023-03-05T02:50:25;1.63;;;1.20;;
55989;SDS011;41875;55.806;38.082;2023-03-05T02:52:55;4.82;;;1.30;;
55989;SDS011;41875;55.806;38.082;2023-03-05T02:55:27;2.03;;;1.00;;
55989;SDS011;41875;55.806;38.082;2023-03-05T02:57:58;3.17;;;1.10;;
55989;SDS011;41875;55.806;38.082;2023-03-05T03:00:27;3.88;;;1.10;;
55989;SDS011;41875;55.806;38.082;2023-03-05T03:02:57;2.35;;;1.20;;
55989;SDS011;41875;55.806;38.082;2023-03-05T03:05:26;2.38;;;1.10;;
55989;SDS011;41875;55.806;38.082;2023-03-05T03:07:55;1.98;;;1.15;;
55989;SDS011;41875;55.806;38.082;2023-03-05T03:10:26;2.60;;;1.10;;
55989;SDS011;41875;55.806;38.082;2023-03-05T03:12:55;1.67;;;1.05;;
55989;SDS011;41875;55.806;38.082;2023-03-05T03:15:24;3.50;;;1.20;;
55989;SDS011;41875;55.806;38.082;2023-03-05T03:17:54;2.30;;;1.10;;
55989;SDS011;41875;55.806;38.082;2023-03-05T03:20:23;4.78;;;1.40;;
55989;SDS011;41875;55.806;38.082;2023-03-05T03:22:52;3.55;;;1.35;;
55989;SDS011;41875;55.806;38.082;2023-03-05T03:25:21;1.92;;;1.20;;
55989;SDS011;41875;55.806;38.082;2023-03-05T03:27:52;4.00;;;1.20;;
55989;SDS011;41875;55.806;38.082;2023-03-05T03:30:22;2.60;;;1.10;;
55989;SDS011;41875;55.806;38.082;2023-03-05T03:32:51;1.58;;;1.10;;
55989;SDS011;41875;55.806;38.082;2023-03-05T03:35:20;4.60;;;1.40;;
55989;SDS011;41875;55.806;38.082;2023-03-05T03:37:50;1.90;;;0.95;;
55989;SDS011;41875;55.806;38.082;2023-03-05T03:40:19;2.70;;;1.23;;
55989;SDS011;41875;55.806;38.082;2023-03-05T03:42:50;1.90;;;1.17;;
55989;SDS011;41875;55.806;38.082;2023-03-05T03:45:21;4.40;;;1.33;;
55989;SDS011;41875;55.806;38.082;2023-03-05T03:47:50;4.55;;;1.20;;
55989;SDS011;41875;55.806;38.082;2023-03-05T03:50:20;2.67;;;1.20;;
55989;SDS011;41875;55.806;38.082;2023-03-05T03:52:50;2.80;;;1.10;;
55989;SDS011;41875;55.806;38.082;2023-03-05T03:55:20;4.50;;;1.40;;
55989;SDS011;41875;55.806;38.082;2023-03-05T03:57:50;1.83;;;1.27;;
55989;SDS011;41875;55.806;38.082;2023-03-05T04:00:20;2.85;;;1.25;;
55989;SDS011;41875;55.806;38.082;2023-03-05T04:02:50;2.10;;;1.30;;
55989;SDS011;41875;55.806;38.082;2023-03-05T04:05:20;2.97;;;1.20;;
55989;SDS011;41875;55.806;38.082;2023-03-05T04:07:49;2.47;;;1.25;;
55989;SDS011;41875;55.806;38.082;2023-03-05T04:10:18;3.30;;;1.27;;
55989;SDS011;41875;55.806;38.082;2023-03-05T04:12:48;2.78;;;1.20;;
55989;SDS011;41875;55.806;38.082;2023-03-05T04:15:17;1.85;;;1.05;;
55989;SDS011;41875;55.806;38.082;2023-03-05T04:17:48;3.35;;;1.38;;
55989;SDS011;41875;55.806;38.082;2023-03-05T04:20:17;2.65;;;1.13;;
55989;SDS011;41875;55.806;38.082;2023-03-05T04:22:48;3.33;;;1.10;;
55989;SDS011;41875;55.806;38.082;2023-03-05T04:25:18;2.38;;;1.30;;
55989;SDS011;41875;55.806;38.082;2023-03-05T04:27:49;4.03;;;1.75;;
55989;SDS011;41875;55.806;38.082;2023-03-05T04:30:19;4.40;;;1.40;;
55989;SDS011;41875;55.806;38.082;2023-03-05T04:32:50;5.13;;;1.20;;
55989;SDS011;41875;55.806;38.082;2023-03-05T04:35:20;4.68;;;1.40;;
55989;SDS011;41875;55.806;38.082;2023-03-05T04:37:50;1.73;;;1.00;;
55989;SDS011;41875;55.806;38.082;2023-03-05T04:40:19;2.00;;;1.10;;
55989;SDS011;41875;55.806;38.082;2023-03-05T04:42:50;3.70;;;1.23;;
55989;SDS011;41875;55.806;38.082;2023-03-05T04:45:19;4.35;;;1.15;;
55989;SDS011;41875;55.806;38.082;2023-03-05T04:47:51;2.88;;;1.20;;
55989;SDS011;41875;55.806;38.082;2023-03-05T04:50:23;2.70;;;1.27;;
55989;SDS011;41875;55.806;38.082;2023-03-05T04:52:53;3.72;;;1.13;;
55989;SDS011;41875;55.806;38.082;2023-03-05T04:55:23;2.65;;;1.27;;
55989;SDS011;41875;55.806;38.082;2023-03-05T04:57:53;1.90;;;1.05;;
55989;SDS011;41875;55.806;38.082;2023-03-05T05:00:23;3.55;;;1.40;;
55989;SDS011;41875;55.806;38.082;2023-03-05T05:02:57;2.33;;;1.20;;
55989;SDS011;41875;55.806;38.082;2023-03-05T05:05:27;2.35;;;1.27;;
55989;SDS011;41875;55.806;38.082;2023-03-05T05:07:57;2.97;;;1.20;;
55989;SDS011;41875;55.806;38.082;2023-03-05T05:10:29;3.60;;;1.30;;
55989;SDS011;41875;55.806;38.082;2023-03-05T05:13:01;5.63;;;1.42;;
55989;SDS011;41875;55.806;38.082;2023-03-05T05:15:31;2.75;;;1.10;;
55989;SDS011;41875;55.806;38.082;2023-03-05T05:18:01;3.20;;;1.42;;
55989;SDS011;41875;55.806;38.082;2023-03-05T05:20:30;2.78;;;1.25;;
55989;SDS011;41875;55.806;38.082;2023-03-05T05:22:58;3.25;;;1.15;;
55989;SDS011;41875;55.806;38.082;2023-03-05T05:25:27;2.42;;;1.42;;
55989;SDS011;41875;55.806;38.082;2023-03-05T05:27:55;5.25;;;1.55;;
55989;SDS011;41875;55.806;38.082;2023-03-05T05:32:52;2.28;;;1.50;;
55989;SDS011;41875;55.806;38.082;2023-03-05T05:35:22;10.15;;;1.80;;
55989;SDS011;41875;55.806;38.082;2023-03-05T05:37:51;1.98;;;1.30;;
55989;SDS011;41875;55.806;38.082;2023-03-05T05:40:19;2.88;;;1.17;;
55989;SDS011;41875;55.806;38.082;2023-03-05T05:45:16;7.88;;;1.27;;
55989;SDS011;41875;55.806;38.082;2023-03-05T05:47:45;2.40;;;1.30;;
55989;SDS011;41875;55.806;38.082;2023-03-05T05:50:13;5.20;;;1.50;;
55989;SDS011;41875;55.806;38.082;2023-03-05T05:52:43;3.03;;;1.42;;
55989;SDS011;41875;55.806;38.082;2023-03-05T05:55:12;2.45;;;1.27;;
55989;SDS011;41875;55.806;38.082;2023-03-05T05:57:41;2.95;;;1.50;;
55989;SDS011;41875;55.806;38.082;2023-03-05T06:00:10;4.53;;;1.50;;
55989;SDS011;41875;55.806;38.082;2023-03-05T06:02:41;3.63;;;1.33;;
55989;SDS011;41875;55.806;38.082;2023-03-05T06:05:10;2.72;;;1.05;;
55989;SDS011;41875;55.806;38.082;2023-03-05T06:07:41;2.13;;;1.38;;
55989;SDS011;41875;55.806;38.082;2023-03-05T06:12:40;2.28;;;1.20;;
55989;SDS011;41875;55.806;38.082;2023-03-05T06:15:08;2.42;;;1.20;;
55989;SDS011;41875;55.806;38.082;2023-03-05T06:17:37;3.08;;;1.20;;
55989;SDS011;41875;55.806;38.082;2023-03-05T06:20:06;2.15;;;1.20;;
55989;SDS011;41875;55.806;38.082;2023-03-05T06:22:36;1.83;;;0.85;;
55989;SDS011;41875;55.806;38.082;2023-03-05T06:25:09;3.53;;;1.10;;
55989;SDS011;41875;55.806;38.082;2023-03-05T06:27:42;2.95;;;1.40;;
55989;SDS011;41875;55.806;38.082;2023-03-05T06:30:11;4.00;;;1.27;;
55989;SDS011;41875;55.806;38.082;2023-03-05T06:32:40;4.05;;;1.10;;
55989;SDS011;41875;55.806;38.082;2023-03-05T06:35:09;3.63;;;1.17;;
55989;SDS011;41875;55.806;38.082;2023-03-05T06:40:06;3.03;;;1.25;;
55989;SDS011;41875;55.806;38.082;2023-03-05T06:42:35;3.63;;;1.63;;
55989;SDS011;41875;55.806;38.082;2023-03-05T06:45:06;2.38;;;1.17;;
55989;SDS011;41875;55.806;38.082;2023-03-05T06:47:36;4.22;;;1.05;;
55989;SDS011;41875;55.806;38.082;2023-03-05T06:50:05;8.18;;;1.38;;
55989;SDS011;41875;55.806;38.082;2023-03-05T06:52:34;2.47;;;1.10;;
55989;SDS011;41875;55.806;38.082;2023-03-05T06:55:04;3.22;;;1.10;;
55989;SDS011;41875;55.806;38.082;2023-03-05T06:57:33;2.97;;;1.13;;
55989;SDS011;41875;55.806;38.082;2023-03-05T07:00:02;2.53;;;1.20;;
55989;SDS011;41875;55.806;38.082;2023-03-05T07:02:37;2.38;;;1.10;;
55989;SDS011;41875;55.806;38.082;2023-03-05T07:05:06;4.95;;;1.45;;
55989;SDS011;41875;55.806;38.082;2023-03-05T07:07:35;3.42;;;1.10;;
55989;SDS011;41875;55.806;38.082;2023-03-05T07:10:04;2.45;;;1.20;;
55989;SDS011;41875;55.806;38.082;2023-03-05T07:12:34;3.65;;;1.33;;
55989;SDS011;41875;55.806;38.082;2023-03-05T07:15:04;1.77;;;1.10;;
55989;SDS011;41875;55.806;38.082;2023-03-05T07:17:34;2.70;;;1.30;;
55989;SDS011;41875;55.806;38.082;2023-03-05T07:22:33;2.53;;;1.10;;
55989;SDS011;41875;55.806;38.082;2023-03-05T07:25:04;3.22;;;1.35;;
55989;SDS011;41875;55.806;38.082;2023-03-05T07:27:34;3.78;;;1.60;;
55989;SDS011;41875;55.806;38.082;2023-03-05T07:30:04;5.00;;;1.55;;
55989;SDS011;41875;55.806;38.082;2023-03-05T07:32:33;5.80;;;1.80;;
55989;SDS011;41875;55.806;38.082;2023-03-05T07:35:04;3.17;;;1.52;;
55989;SDS011;41875;55.806;38.082;2023-03-05T07:37:34;3.10;;;1.50;;
55989;SDS011;41875;55.806;38.082;2023-03-05T07:40:02;3.00;;;1.45;;
55989;SDS011;41875;55.806;38.082;2023-03-05T07:42:32;3.45;;;1.42;;
55989;SDS011;41875;55.806;38.082;2023-03-05T07:45:12;3.28;;;1.55;;
55989;SDS011;41875;55.806;38.082;2023-03-05T07:50:10;6.60;;;1.80;;
55989;SDS011;41875;55.806;38.082;2023-03-05T07:52:39;4.25;;;1.60;;
55989;SDS011;41875;55.806;38.082;2023-03-05T07:55:08;3.15;;;1.60;;
55989;SDS011;41875;55.806;38.082;2023-03-05T07:57:38;4.57;;;1.92;;
55989;SDS011;41875;55.806;38.082;2023-03-05T08:00:07;3.08;;;1.58;;
55989;SDS011;41875;55.806;38.082;2023-03-05T08:02:38;2.58;;;1.45;;
55989;SDS011;41875;55.806;38.082;2023-03-05T08:05:07;4.65;;;1.70;;
55989;SDS011;41875;55.806;38.082;2023-03-05T08:07:37;7.22;;;2.30;;
55989;SDS011;41875;55.806;38.082;2023-03-05T08:10:06;7.60;;;2.53;;
55989;SDS011;41875;55.806;38.082;2023-03-05T08:12:36;10.43;;;3.03;;
55989;SDS011;41875;55.806;38.082;2023-03-05T08:15:05;6.82;;;2.88;;
55989;SDS011;41875;55.806;38.082;2023-03-05T08:17:34;5.53;;;2.30;;
55989;SDS011;41875;55.806;38.082;2023-03-05T08:20:03;4.55;;;2.50;;
55989;SDS011;41875;55.806;38.082;2023-03-05T08:22:38;6.65;;;2.83;;
55989;SDS011;41875;55.806;38.082;2023-03-05T08:25:06;5.55;;;2.85;;
55989;SDS011;41875;55.806;38.082;2023-03-05T08:27:37;8.65;;;2.75;;
55989;SDS011;41875;55.806;38.082;2023-03-05T08:30:07;4.88;;;2.50;;
55989;SDS011;41875;55.806;38.082;2023-03-05T08:32:38;6.07;;;3.38;;
55989;SDS011;41875;55.806;38.082;2023-03-05T08:35:07;6.95;;;2.80;;
55989;SDS011;41875;55.806;38.082;2023-03-05T08:37:37;8.48;;;2.67;;
55989;SDS011;41875;55.806;38.082;2023-03-05T08:40:06;8.63;;;2.70;;
55989;SDS011;41875;55.806;38.082;2023-03-05T08:42:38;5.70;;;3.17;;
55989;SDS011;41875;55.806;38.082;2023-03-05T08:45:07;5.22;;;2.40;;
55989;SDS011;41875;55.806;38.082;2023-03-05T08:47:37;7.22;;;3.17;;
55989;SDS011;41875;55.806;38.082;2023-03-05T08:50:06;5.43;;;2.85;;
55989;SDS011;41875;55.806;38.082;2023-03-05T08:52:35;8.80;;;2.50;;
55989;SDS011;41875;55.806;38.082;2023-03-05T08:55:06;4.32;;;2.03;;
55989;SDS011;41875;55.806;38.082;2023-03-05T08:57:35;5.78;;;2.17;;
55989;SDS011;41875;55.806;38.082;2023-03-05T09:00:04;6.05;;;2.50;;
55989;SDS011;41875;55.806;38.082;2023-03-05T09:02:36;4.43;;;2.13;;
55989;SDS011;41875;55.806;38.082;2023-03-05T09:05:04;6.38;;;2.55;;
55989;SDS011;41875;55.806;38.082;2023-03-05T09:07:34;5.95;;;2.53;;
55989;SDS011;41875;55.806;38.082;2023-03-05T09:10:06;6.07;;;2.10;;
55989;SDS011;41875;55.806;38.082;2023-03-05T09:12:38;9.95;;;1.73;;
55989;SDS011;41875;55.806;38.082;2023-03-05T09:15:07;3.92;;;1.70;;
55989;SDS011;41875;55.806;38.082;2023-03-05T09:17:39;5.00;;;1.63;;
55989;SDS011;41875;55.806;38.082;2023-03-05T09:20:11;2.80;;;1.65;;
55989;SDS011;41875;55.806;38.082;2023-03-05T09:22:41;4.25;;;2.15;;
55989;SDS011;41875;55.806;38.082;2023-03-05T09:25:11;4.18;;;2.20;;
55989;SDS011;41875;55.806;38.082;2023-03-05T09:27:39;2.08;;;1.20;;
55989;SDS011;41875;55.806;38.082;2023-03-05T09:30:12;2.60;;;1.35;;
55989;SDS011;41875;55.806;38.082;2023-03-05T09:32:41;3.95;;;1.67;;
55989;SDS011;41875;55.806;38.082;2023-03-05T09:35:09;6.82;;;1.98;;
55989;SDS011;41875;55.806;38.082;2023-03-05T09:37:38;2.15;;;1.50;;
55989;SDS011;41875;55.806;38.082;2023-03-05T09:40:09;1.10;;;0.95;;
55989;SDS011;41875;55.806;38.082;2023-03-05T09:42:50;1.42;;;0.93;;
55989;SDS011;41875;55.806;38.082;2023-03-05T09:45:29;3.65;;;1.63;;
55989;SDS011;41875;55.806;38.082;2023-03-05T09:48:06;5.97;;;1.85;;
55989;SDS011;41875;55.806;38.082;2023-03-05T09:50:44;3.75;;;1.48;;
55989;SDS011;41875;55.806;38.082;2023-03-05T09:53:19;4.40;;;1.55;;
55989;SDS011;41875;55.806;38.082;2023-03-05T09:56:08;1.27;;;1.05;;
55989;SDS011;41875;55.806;38.082;2023-03-05T09:58:39;1.60;;;1.05;;
55989;SDS011;41875;55.806;38.082;2023-03-05T10:01:09;3.35;;;1.50;;
55989;SDS011;41875;55.806;38.082;2023-03-05T10:03:48;2.78;;;1.30;;
55989;SDS011;41875;55.806;38.082;2023-03-05T10:06:23;5.40;;;1.55;;
55989;SDS011;41875;55.806;38.082;2023-03-05T10:08:54;4.47;;;1.83;;
55989;SDS011;41875;55.806;38.082;2023-03-05T10:14:19;5.07;;;2.25;;
55989;SDS011;41875;55.806;38.082;2023-03-05T10:20:03;3.42;;;1.60;;
55989;SDS011;41875;55.806;38.082;2023-03-05T10:23:01;4.53;;;2.35;;
55989;SDS011;41875;55.806;38.082;2023-03-05T10:25:41;3.42;;;1.52;;
55989;SDS011;41875;55.806;38.082;2023-03-05T10:28:24;3.97;;;2.00;;
55989;SDS011;41875;55.806;38.082;2023-03-05T10:31:07;3.33;;;1.60;;
55989;SDS011;41875;55.806;38.082;2023-03-05T10:33:52;6.75;;;2.42;;
55989;SDS011;41875;55.806;38.082;2023-03-05T10:36:33;5.70;;;2.53;;
55989;SDS011;41875;55.806;38.082;2023-03-05T10:42:12;5.88;;;2.47;;
55989;SDS011;41875;55.806;38.082;2023-03-05T10:44:51;5.20;;;2.55;;
55989;SDS011;41875;55.806;38.082;2023-03-05T10:47:24;5.50;;;2.85;;
55989;SDS011;41875;55.806;38.082;2023-03-05T10:49:57;6.60;;;2.75;;
55989;SDS011;41875;55.806;38.082;2023-03-05T10:52:28;5.13;;;2.50;;
55989;SDS011;41875;55.806;38.082;2023-03-05T10:55:00;5.70;;;2.60;;
55989;SDS011;41875;55.806;38.082;2023-03-05T10:57:30;3.90;;;2.03;;
55989;SDS011;41875;55.806;38.082;2023-03-05T11:00:09;4.53;;;1.95;;
55989;SDS011;41875;55.806;38.082;2023-03-05T11:02:52;4.55;;;2.05;;
55989;SDS011;41875;55.806;38.082;2023-03-05T11:05:35;4.53;;;1.83;;
55989;SDS011;41875;55.806;38.082;2023-03-05T11:08:20;5.97;;;2.25;;
55989;SDS011;41875;55.806;38.082;2023-03-05T11:11:11;5.82;;;1.92;;
55989;SDS011;41875;55.806;38.082;2023-03-05T11:13:53;5.18;;;2.58;;
55989;SDS011;41875;55.806;38.082;2023-03-05T11:16:26;4.72;;;2.50;;
55989;SDS011;41875;55.806;38.082;2023-03-05T11:19:11;8.30;;;3.90;;
55989;SDS011;41875;55.806;38.082;2023-03-05T11:21:44;4.68;;;2.33;;
55989;SDS011;41875;55.806;38.082;2023-03-05T11:24:15;5.60;;;2.67;;
55989;SDS011;41875;55.806;38.082;2023-03-05T11:26:45;5.32;;;2.95;;
55989;SDS011;41875;55.806;38.082;2023-03-05T11:29:18;7.32;;;3.60;;
55989;SDS011;41875;55.806;38.082;2023-03-05T11:31:50;6.03;;;2.72;;
55989;SDS011;41875;55.806;38.082;2023-03-05T11:34:24;7.28;;;3.55;;
55989;SDS011;41875;55.806;38.082;2023-03-05T11:37:04;6.03;;;3.17;;
55989;SDS011;41875;55.806;38.082;2023-03-05T11:39:34;9.90;;;3.65;;
55989;SDS011;41875;55.806;38.082;2023-03-05T11:42:06;6.45;;;3.63;;
55989;SDS011;41875;55.806;38.082;2023-03-05T11:44:45;6.22;;;2.88;;
55989;SDS011;41875;55.806;38.082;2023-03-05T11:47:18;10.60;;;4.28;;
55989;SDS011;41875;55.806;38.082;2023-03-05T11:49:54;5.47;;;2.88;;
55989;SDS011;41875;55.806;38.082;2023-03-05T11:52:29;5.90;;;2.65;;
55989;SDS011;41875;55.806;38.082;2023-03-05T11:55:02;4.07;;;2.13;;
55989;SDS011;41875;55.806;38.082;2023-03-05T11:57:39;6.35;;;2.97;;
55989;SDS011;41875;55.806;38.082;2023-03-05T12:00:15;3.95;;;1.75;;
55989;SDS011;41875;55.806;38.082;2023-03-05T12:02:49;6.30;;;3.28;;
55989;SDS011;41875;55.806;38.082;2023-03-05T12:05:21;4.85;;;2.70;;
55989;SDS011;41875;55.806;38.082;2023-03-05T12:07:50;7.03;;;2.65;;
55989;SDS011;41875;55.806;38.082;2023-03-05T12:10:23;7.80;;;3.13;;
55989;SDS011;41875;55.806;38.082;2023-03-05T12:12:55;3.67;;;1.88;;
55989;SDS011;41875;55.806;38.082;2023-03-05T12:15:29;5.93;;;2.85;;
55989;SDS011;41875;55.806;38.082;2023-03-05T12:18:15;3.30;;;2.42;;
55989;SDS011;41875;55.806;38.082;2023-03-05T12:20:56;6.20;;;2.78;;
55989;SDS011;41875;55.806;38.082;2023-03-05T12:23:43;6.70;;;2.47;;
55989;SDS011;41875;55.806;38.082;2023-03-05T12:26:13;5.07;;;2.47;;
55989;SDS011;41875;55.806;38.082;2023-03-05T12:28:52;5.75;;;3.30;;
55989;SDS011;41875;55.806;38.082;2023-03-05T12:31:27;3.13;;;2.15;;
55989;SDS011;41875;55.806;38.082;2023-03-05T12:40:50;6.63;;;2.72;;
55989;SDS011;41875;55.806;38.082;2023-03-05T12:43:29;6.32;;;2.53;;
55989;SDS011;41875;55.806;38.082;2023-03-05T12:48:50;8.27;;;3.05;;
55989;SDS011;41875;55.806;38.082;2023-03-05T12:51:29;5.50;;;2.63;;
55989;SDS011;41875;55.806;38.082;2023-03-05T12:57:04;5.95;;;2.45;;
55989;SDS011;41875;55.806;38.082;2023-03-05T12:59:41;5.80;;;2.03;;
55989;SDS011;41875;55.806;38.082;2023-03-05T13:02:20;4.65;;;2.40;;
55989;SDS011;41875;55.806;38.082;2023-03-05T13:04:52;4.97;;;2.58;;
55989;SDS011;41875;55.806;38.082;2023-03-05T13:07:25;4.47;;;2.35;;
55989;SDS011;41875;55.806;38.082;2023-03-05T13:09:54;9.68;;;2.50;;
55989;SDS011;41875;55.806;38.082;2023-03-05T13:12:26;4.65;;;2.60;;
55989;SDS011;41875;55.806;38.082;2023-03-05T13:14:58;3.30;;;1.77;;
55989;SDS011;41875;55.806;38.082;2023-03-05T13:17:31;4.68;;;2.05;;
55989;SDS011;41875;55.806;38.082;2023-03-05T13:23:01;5.68;;;2.08;;
55989;SDS011;41875;55.806;38.082;2023-03-05T13:25:34;3.05;;;1.88;;
55989;SDS011;41875;55.806;38.082;2023-03-05T13:28:13;4.22;;;2.17;;
55989;SDS011;41875;55.806;38.082;2023-03-05T13:30:44;2.55;;;1.35;;
55989;SDS011;41875;55.806;38.082;2023-03-05T13:33:18;5.78;;;2.47;;
55989;SDS011;41875;55.806;38.082;2023-03-05T13:35:57;2.97;;;1.70;;
55989;SDS011;41875;55.806;38.082;2023-03-05T13:38:30;3.38;;;1.48;;
55989;SDS011;41875;55.806;38.082;2023-03-05T13:41:05;4.30;;;1.55;;
55989;SDS011;41875;55.806;38.082;2023-03-05T13:43:45;3.95;;;1.90;;
55989;SDS011;41875;55.806;38.082;2023-03-05T13:46:21;3.58;;;1.63;;
55989;SDS011;41875;55.806;38.082;2023-03-05T13:48:52;4.20;;;1.95;;
55989;SDS011;41875;55.806;38.082;2023-03-05T13:51:23;3.47;;;1.70;;
55989;SDS011;41875;55.806;38.082;2023-03-05T13:54:10;4.10;;;2.15;;
55989;SDS011;41875;55.806;38.082;2023-03-05T13:56:52;4.07;;;2.42;;
55989;SDS011;41875;55.806;38.082;2023-03-05T13:59:28;5.05;;;2.08;;
55989;SDS011;41875;55.806;38.082;2023-03-05T14:01:58;1.42;;;1.10;;
55989;SDS011;41875;55.806;38.082;2023-03-05T14:04:33;3.78;;;1.48;;
55989;SDS011;41875;55.806;38.082;2023-03-05T14:07:06;4.80;;;1.58;;
55989;SDS011;41875;55.806;38.082;2023-03-05T14:09:52;5.75;;;2.28;;
55989;SDS011;41875;55.806;38.082;2023-03-05T14:12:24;6.40;;;1.98;;
55989;SDS011;41875;55.806;38.082;2023-03-05T14:14:59;3.55;;;2.00;;
55989;SDS011;41875;55.806;38.082;2023-03-05T14:17:37;4.07;;;1.77;;
55989;SDS011;41875;55.806;38.082;2023-03-05T14:20:15;6.22;;;2.15;;
55989;SDS011;41875;55.806;38.082;2023-03-05T14:22:49;4.10;;;1.85;;
55989;SDS011;41875;55.806;38.082;2023-03-05T14:25:32;2.30;;;1.48;;
55989;SDS011;41875;55.806;38.082;2023-03-05T14:28:05;3.90;;;1.52;;
55989;SDS011;41875;55.806;38.082;2023-03-05T14:30:36;3.58;;;1.73;;
55989;SDS011;41875;55.806;38.082;2023-03-05T14:33:05;5.10;;;1.88;;
55989;SDS011;41875;55.806;38.082;2023-03-05T14:35:34;4.30;;;2.05;;
55989;SDS011;41875;55.806;38.082;2023-03-05T14:38:04;5.38;;;1.80;;
55989;SDS011;41875;55.806;38.082;2023-03-05T14:40:34;4.38;;;2.08;;
55989;SDS011;41875;55.806;38.082;2023-03-05T14:43:04;4.63;;;2.13;;
55989;SDS011;41875;55.806;38.082;2023-03-05T14:45:34;3.95;;;1.75;;
55989;SDS011;41875;55.806;38.082;2023-03-05T14:48:06;3.95;;;1.90;;
55989;SDS011;41875;55.806;38.082;2023-03-05T14:50:36;5.03;;;1.92;;
55989;SDS011;41875;55.806;38.082;2023-03-05T14:53:11;4.13;;;1.95;;
55989;SDS011;41875;55.806;38.082;2023-03-05T14:55:41;2.85;;;1.42;;
55989;SDS011;41875;55.806;38.082;2023-03-05T14:58:14;5.95;;;1.45;;
55989;SDS011;41875;55.806;38.082;2023-03-05T15:00:54;5.90;;;1.70;;
55989;SDS011;41875;55.806;38.082;2023-03-05T15:03:23;3.53;;;1.77;;
55989;SDS011;41875;55.806;38.082;2023-03-05T15:05:54;6.57;;;3.22;;
55989;SDS011;41875;55.806;38.082;2023-03-05T15:08:26;4.22;;;1.77;;
55989;SDS011;41875;55.806;38.082;2023-03-05T15:10:56;10.63;;;2.50;;
55989;SDS011;41875;55.806;38.082;2023-03-05T15:13:25;5.60;;;2.25;;
55989;SDS011;41875;55.806;38.082;2023-03-05T15:15:58;7.20;;;2.33;;
55989;SDS011;41875;55.806;38.082;2023-03-05T15:18:27;3.20;;;1.52;;
55989;SDS011;41875;55.806;38.082;2023-03-05T15:20:59;4.72;;;2.28;;
55989;SDS011;41875;55.806;38.082;2023-03-05T15:23:28;5.00;;;1.95;;
55989;SDS011;41875;55.806;38.082;2023-03-05T15:26:03;5.53;;;2.00;;
55989;SDS011;41875;55.806;38.082;2023-03-05T15:28:34;5.68;;;2.00;;
55989;SDS011;41875;55.806;38.082;2023-03-05T15:31:05;6.30;;;2.10;;
55989;SDS011;41875;55.806;38.082;2023-03-05T15:33:35;6.18;;;2.22;;
55989;SDS011;41875;55.806;38.082;2023-03-05T15:36:04;6.05;;;2.33;;
55989;SDS011;41875;55.806;38.082;2023-03-05T15:38:34;6.72;;;2.15;;
55989;SDS011;41875;55.806;38.082;2023-03-05T15:41:05;4.93;;;1.80;;
55989;SDS011;41875;55.806;38.082;2023-03-05T15:43:35;2.42;;;1.40;;